createdAt,value
2018-10-05T00:00:50.345Z,0.00
2018-10-05T00:01:50.256Z,0.00
2018-10-05T00:02:50.184Z,0.00
2018-10-05T00:03:50.106Z,0.00
2018-10-05T00:04:50.018Z,0.00
2018-10-05T00:05:49.943Z,0.00
2018-10-05T00:06:49.855Z,0.00
2018-10-05T00:07:49.768Z,0.00
2018-10-05T00:08:49.680Z,0.00
2018-10-05T00:09:49.606Z,0.00
2018-10-05T00:10:49.518Z,0.00
2018-10-05T00:11:49.444Z,0.00
2018-10-05T00:12:49.399Z,0.00
2018-10-05T00:13:49.269Z,0.00
2018-10-05T00:14:49.195Z,0.00
2018-10-05T00:15:49.106Z,0.00
2018-10-05T00:16:49.044Z,0.00
2018-10-05T00:17:48.945Z,0.00
2018-10-05T00:18:48.857Z,0.00
2018-10-05T00:19:48.781Z,0.00
2018-10-05T00:20:48.695Z,0.00
2018-10-05T00:21:48.620Z,0.00
2018-10-05T00:22:48.535Z,0.00
2018-10-05T00:23:48.457Z,0.00
2018-10-05T00:24:48.370Z,0.00
2018-10-05T00:25:48.282Z,0.00
2018-10-05T00:26:48.207Z,0.00
2018-10-05T00:27:48.120Z,0.00
2018-10-05T00:28:48.045Z,0.00
2018-10-05T00:29:47.957Z,0.00
2018-10-05T00:30:47.876Z,0.00
2018-10-05T00:31:47.796Z,0.00
2018-10-05T00:32:47.707Z,0.00
2018-10-05T00:33:47.648Z,0.00
2018-10-05T00:34:47.546Z,0.00
2018-10-05T00:35:47.471Z,0.00
2018-10-05T00:36:47.382Z,0.00
2018-10-05T00:37:47.307Z,0.00
2018-10-05T00:38:47.223Z,0.00
2018-10-05T00:39:47.146Z,0.00
2018-10-05T00:40:47.060Z,0.00
2018-10-05T00:41:46.972Z,0.00
2018-10-05T00:42:46.898Z,0.00
2018-10-05T00:43:46.809Z,0.00
2018-10-05T00:44:46.721Z,0.00
2018-10-05T00:45:46.647Z,0.00
2018-10-05T00:46:46.559Z,0.00
2018-10-05T00:47:46.484Z,0.00
2018-10-05T00:48:46.397Z,0.00
2018-10-05T00:49:46.310Z,0.00
2018-10-05T00:50:46.247Z,0.00
2018-10-05T00:51:46.148Z,0.00
2018-10-05T00:52:46.073Z,0.00
2018-10-05T00:53:45.984Z,0.00
2018-10-05T00:54:45.909Z,0.00
2018-10-05T00:55:45.825Z,0.00
2018-10-05T00:56:45.748Z,0.00
2018-10-05T00:57:45.660Z,0.00
2018-10-05T00:58:45.574Z,0.00
2018-10-05T00:59:45.499Z,0.00
2018-10-05T01:00:45.410Z,0.00
2018-10-05T01:01:45.392Z,0.00
2018-10-05T01:02:45.248Z,0.00
2018-10-05T01:03:45.161Z,0.00
2018-10-05T01:04:45.086Z,0.00
2018-10-05T01:05:44.999Z,0.00
2018-10-05T01:06:44.924Z,0.00
2018-10-05T01:07:44.836Z,0.00
2018-10-05T01:08:44.762Z,0.00
2018-10-05T01:09:44.675Z,0.00
2018-10-05T01:10:44.587Z,0.00
2018-10-05T01:11:44.511Z,0.00
2018-10-05T01:12:44.424Z,0.00
2018-10-05T01:13:44.351Z,0.00
2018-10-05T01:14:44.262Z,0.00
2018-10-05T01:15:44.187Z,0.00
2018-10-05T01:16:44.100Z,0.00
2018-10-05T01:17:44.013Z,0.00
2018-10-05T01:18:43.939Z,0.00
2018-10-05T01:19:43.851Z,0.00
2018-10-05T01:20:43.776Z,0.00
2018-10-05T01:21:43.687Z,0.00
2018-10-05T01:22:43.602Z,0.00
2018-10-05T01:23:43.526Z,0.00
2018-10-05T01:24:43.469Z,0.00
2018-10-05T01:25:43.364Z,0.00
2018-10-05T01:26:43.276Z,0.00
2018-10-05T01:27:43.202Z,0.00
2018-10-05T01:28:43.114Z,0.00
2018-10-05T01:29:43.027Z,0.00
2018-10-05T01:30:42.956Z,0.00
2018-10-05T01:31:42.864Z,0.00
2018-10-05T01:32:42.789Z,0.00
2018-10-05T01:33:42.703Z,0.00
2018-10-05T01:34:42.616Z,0.00
2018-10-05T01:35:42.550Z,0.00
2018-10-05T01:36:42.454Z,0.00
2018-10-05T01:37:42.378Z,0.00
2018-10-05T01:38:42.326Z,0.00
2018-10-05T01:39:42.214Z,0.00
2018-10-05T01:40:42.128Z,0.00
2018-10-05T01:41:42.053Z,0.00
2018-10-05T01:42:41.965Z,0.00
2018-10-05T01:43:41.879Z,0.00
2018-10-05T01:44:41.804Z,0.00
2018-10-05T01:45:41.747Z,0.00
2018-10-05T01:46:41.641Z,0.00
2018-10-05T01:47:41.556Z,0.00
2018-10-05T01:48:41.468Z,0.00
2018-10-05T01:49:41.392Z,0.00
2018-10-05T01:50:41.312Z,0.00
2018-10-05T01:51:41.229Z,0.00
2018-10-05T01:52:41.141Z,0.00
2018-10-05T01:53:41.071Z,0.00
2018-10-05T01:54:40.980Z,0.00
2018-10-05T01:55:40.904Z,0.00
2018-10-05T01:56:40.817Z,0.00
2018-10-05T01:57:40.739Z,0.00
2018-10-05T01:58:40.662Z,0.00
2018-10-05T01:59:40.567Z,0.00
2018-10-05T02:00:40.509Z,0.00
2018-10-05T02:01:40.409Z,0.00
2018-10-05T02:02:40.452Z,0.00
2018-10-05T02:03:40.243Z,0.00
2018-10-05T02:04:40.157Z,0.00
2018-10-05T02:05:40.082Z,0.00
2018-10-05T02:06:39.993Z,0.00
2018-10-05T02:07:39.918Z,0.00
2018-10-05T02:08:39.831Z,0.00
2018-10-05T02:09:39.743Z,0.00
2018-10-05T02:10:39.670Z,0.00
2018-10-05T02:11:39.593Z,0.00
2018-10-05T02:12:39.507Z,0.00
2018-10-05T02:13:39.431Z,0.00
2018-10-05T02:14:39.334Z,0.00
2018-10-05T02:15:39.257Z,0.00
2018-10-05T02:16:39.169Z,0.00
2018-10-05T02:17:39.094Z,0.00
2018-10-05T02:18:39.008Z,0.00
2018-10-05T02:19:38.932Z,0.00
2018-10-05T02:20:38.847Z,0.00
2018-10-05T02:21:38.758Z,0.00
2018-10-05T02:22:38.683Z,0.00
2018-10-05T02:23:38.595Z,0.00
2018-10-05T02:24:38.533Z,0.00
2018-10-05T02:25:38.434Z,0.00
2018-10-05T02:26:38.346Z,0.00
2018-10-05T02:27:38.461Z,0.00
2018-10-05T02:28:38.195Z,0.00
2018-10-05T02:29:38.109Z,0.00
2018-10-05T02:30:38.034Z,0.00
2018-10-05T02:31:37.946Z,0.00
2018-10-05T02:32:37.861Z,0.00
2018-10-05T02:33:37.784Z,0.00
2018-10-05T02:34:37.702Z,0.00
2018-10-05T02:35:37.610Z,0.00
2018-10-05T02:36:37.534Z,0.00
2018-10-05T02:37:37.451Z,0.00
2018-10-05T02:38:37.362Z,0.00
2018-10-05T02:39:37.284Z,0.00
2018-10-05T02:40:37.196Z,0.00
2018-10-05T02:41:37.183Z,0.00
2018-10-05T02:42:37.035Z,0.00
2018-10-05T02:43:36.961Z,0.00
2018-10-05T02:44:36.889Z,0.00
2018-10-05T02:45:36.785Z,0.00
2018-10-05T02:46:36.712Z,0.00
2018-10-05T02:47:36.623Z,0.00
2018-10-05T02:48:36.548Z,0.00
2018-10-05T02:49:36.471Z,0.00
2018-10-05T02:50:36.373Z,0.00
2018-10-05T02:51:36.297Z,0.00
2018-10-05T02:52:36.211Z,0.00
2018-10-05T02:53:36.135Z,0.00
2018-10-05T02:54:36.047Z,0.00
2018-10-05T02:55:35.975Z,0.00
2018-10-05T02:56:35.888Z,0.00
2018-10-05T02:57:35.811Z,0.00
2018-10-05T02:58:35.724Z,0.00
2018-10-05T02:59:35.637Z,0.00
2018-10-05T03:00:35.561Z,0.00
2018-10-05T03:01:35.474Z,0.00
2018-10-05T03:02:35.387Z,0.00
2018-10-05T03:03:35.313Z,0.00
2018-10-05T03:04:35.225Z,0.00
2018-10-05T03:05:35.148Z,0.00
2018-10-05T03:06:35.063Z,0.00
2018-10-05T03:07:34.975Z,0.00
2018-10-05T03:08:34.900Z,0.00
2018-10-05T03:09:34.813Z,0.00
2018-10-05T03:10:34.739Z,0.00
2018-10-05T03:11:34.665Z,0.00
2018-10-05T03:12:34.575Z,0.00
2018-10-05T03:13:34.490Z,0.00
2018-10-05T03:14:34.400Z,0.00
2018-10-05T03:15:34.325Z,0.00
2018-10-05T03:16:34.239Z,0.00
2018-10-05T03:17:34.156Z,0.00
2018-10-05T03:18:34.075Z,0.00
2018-10-05T03:19:34.015Z,0.00
2018-10-05T03:20:33.917Z,0.00
2018-10-05T03:21:33.826Z,0.00
2018-10-05T03:22:33.766Z,0.00
2018-10-05T03:23:33.664Z,0.00
2018-10-05T03:24:33.584Z,0.00
2018-10-05T03:25:33.501Z,0.00
2018-10-05T03:26:33.415Z,0.00
2018-10-05T03:27:33.339Z,0.00
2018-10-05T03:28:33.253Z,0.00
2018-10-05T03:29:33.164Z,0.00
2018-10-05T03:30:33.095Z,0.00
2018-10-05T03:31:33.002Z,0.00
2018-10-05T03:32:32.930Z,0.00
2018-10-05T03:33:32.840Z,0.00
2018-10-05T03:34:32.766Z,0.00
2018-10-05T03:35:32.677Z,0.00
2018-10-05T03:36:32.594Z,0.00
2018-10-05T03:37:32.515Z,0.00
2018-10-05T03:38:32.427Z,0.00
2018-10-05T03:39:32.353Z,0.00
2018-10-05T03:40:32.265Z,0.00
2018-10-05T03:41:32.178Z,0.00
2018-10-05T03:42:32.103Z,0.00
2018-10-05T03:43:32.017Z,0.00
2018-10-05T03:44:31.942Z,0.00
2018-10-05T03:45:31.853Z,0.00
2018-10-05T03:46:31.778Z,0.00
2018-10-05T03:47:31.691Z,0.00
2018-10-05T03:48:31.656Z,0.00
2018-10-05T03:49:31.531Z,0.00
2018-10-05T03:50:31.453Z,0.00
2018-10-05T03:51:31.367Z,0.00
2018-10-05T03:52:31.292Z,0.00
2018-10-05T03:53:31.192Z,0.00
2018-10-05T03:54:31.118Z,0.00
2018-10-05T03:55:31.040Z,0.00
2018-10-05T03:56:30.954Z,0.00
2018-10-05T03:57:30.867Z,0.00
2018-10-05T03:58:30.780Z,0.00
2018-10-05T03:59:30.704Z,0.00
2018-10-05T04:00:30.617Z,0.00
2018-10-05T04:01:30.543Z,0.00
2018-10-05T04:02:30.463Z,0.00
2018-10-05T04:03:30.380Z,0.00
2018-10-05T04:04:30.293Z,0.00
2018-10-05T04:05:30.206Z,0.00
2018-10-05T04:06:30.144Z,0.00
2018-10-05T04:07:30.045Z,0.00
2018-10-05T04:08:29.972Z,0.00
2018-10-05T04:09:29.881Z,0.00
2018-10-05T04:10:29.806Z,0.00
2018-10-05T04:11:29.720Z,0.00
2018-10-05T04:12:29.631Z,0.00
2018-10-05T04:13:29.556Z,0.00
2018-10-05T04:14:29.470Z,0.00
2018-10-05T04:15:29.395Z,0.00
2018-10-05T04:16:29.306Z,0.00
2018-10-05T04:17:29.232Z,0.00
2018-10-05T04:18:29.145Z,0.00
2018-10-05T04:19:29.071Z,0.00
2018-10-05T04:20:28.982Z,0.00
2018-10-05T04:21:28.896Z,0.00
2018-10-05T04:22:28.822Z,0.00
2018-10-05T04:23:28.732Z,0.00
2018-10-05T04:24:28.646Z,0.00
2018-10-05T04:25:28.572Z,0.00
2018-10-05T04:26:28.484Z,0.00
2018-10-05T04:27:28.408Z,0.00
2018-10-05T04:28:28.321Z,0.00
2018-10-05T04:29:28.235Z,0.00
2018-10-05T04:30:28.158Z,0.00
2018-10-05T04:31:28.072Z,0.00
2018-10-05T04:32:28.001Z,0.00
2018-10-05T04:33:27.908Z,0.00
2018-10-05T04:34:27.833Z,0.00
2018-10-05T04:35:27.754Z,0.00
2018-10-05T04:36:27.673Z,0.00
2018-10-05T04:37:27.584Z,0.00
2018-10-05T04:38:27.497Z,0.00
2018-10-05T04:39:27.424Z,0.00
2018-10-05T04:40:27.334Z,0.00
2018-10-05T04:41:27.273Z,0.00
2018-10-05T04:42:27.174Z,0.00
2018-10-05T04:43:27.091Z,0.00
2018-10-05T04:44:27.010Z,0.00
2018-10-05T04:45:26.938Z,0.00
2018-10-05T04:46:26.848Z,0.00
2018-10-05T04:47:26.774Z,0.00
2018-10-05T04:48:26.685Z,0.00
2018-10-05T04:49:26.645Z,0.00
2018-10-05T04:50:26.511Z,0.00
2018-10-05T04:51:26.438Z,0.00
2018-10-05T04:52:26.351Z,0.00
2018-10-05T04:53:26.276Z,0.00
2018-10-05T04:54:26.187Z,0.00
2018-10-05T04:55:26.112Z,0.00
2018-10-05T04:56:26.070Z,0.00
2018-10-05T04:57:25.937Z,0.00
2018-10-05T04:58:25.878Z,0.00
2018-10-05T04:59:25.776Z,0.00
2018-10-05T05:00:25.699Z,0.00
2018-10-05T05:01:25.612Z,0.00
2018-10-05T05:02:25.540Z,0.00
2018-10-05T05:03:25.460Z,0.00
2018-10-05T05:04:25.381Z,0.00
2018-10-05T05:05:25.288Z,0.00
2018-10-05T05:06:25.200Z,0.00
2018-10-05T05:07:25.127Z,0.00
2018-10-05T05:08:25.040Z,0.00
2018-10-05T05:09:24.976Z,0.00
2018-10-05T05:10:24.876Z,0.00
2018-10-05T05:11:24.792Z,5.63
2018-10-05T05:12:24.727Z,5.63
2018-10-05T05:13:24.627Z,5.63
2018-10-05T05:14:24.553Z,5.63
2018-10-05T05:15:24.466Z,5.63
2018-10-05T05:16:24.388Z,5.63
2018-10-05T05:17:24.302Z,5.63
2018-10-05T05:18:24.214Z,5.63
2018-10-05T05:19:24.142Z,5.63
2018-10-05T05:20:24.054Z,11.25
2018-10-05T05:21:23.978Z,11.25
2018-10-05T05:22:23.889Z,11.25
2018-10-05T05:23:23.816Z,11.25
2018-10-05T05:24:23.728Z,11.25
2018-10-05T05:25:23.640Z,11.25
2018-10-05T05:26:23.565Z,16.88
2018-10-05T05:27:23.478Z,16.88
2018-10-05T05:28:23.403Z,16.88
2018-10-05T05:29:23.315Z,16.88
2018-10-05T05:30:23.242Z,16.88
2018-10-05T05:31:23.153Z,16.88
2018-10-05T05:32:23.065Z,16.88
2018-10-05T05:33:23.031Z,22.50
2018-10-05T05:34:22.904Z,22.50
2018-10-05T05:35:22.829Z,22.50
2018-10-05T05:36:22.754Z,22.50
2018-10-05T05:37:22.657Z,22.50
2018-10-05T05:38:22.579Z,28.13
2018-10-05T05:39:22.491Z,28.13
2018-10-05T05:40:22.468Z,28.13
2018-10-05T05:41:22.331Z,28.13
2018-10-05T05:42:22.255Z,33.75
2018-10-05T05:43:22.166Z,33.75
2018-10-05T05:44:22.080Z,33.75
2018-10-05T05:45:22.005Z,33.75
2018-10-05T05:46:21.917Z,39.38
2018-10-05T05:47:21.841Z,39.38
2018-10-05T05:48:21.755Z,39.38
2018-10-05T05:49:21.670Z,39.38
2018-10-05T05:50:21.592Z,45.00
2018-10-05T05:51:21.505Z,45.00
2018-10-05T05:52:21.440Z,50.63
2018-10-05T05:53:21.343Z,50.63
2018-10-05T05:54:21.275Z,50.63
2018-10-05T05:55:21.182Z,50.63
2018-10-05T05:56:21.107Z,50.63
2018-10-05T05:57:21.017Z,50.63
2018-10-05T05:58:20.936Z,56.25
2018-10-05T05:59:20.857Z,56.25
2018-10-05T06:00:20.771Z,56.25
2018-10-05T06:01:20.693Z,56.25
2018-10-05T06:02:20.606Z,56.25
2018-10-05T06:03:20.518Z,61.88
2018-10-05T06:04:20.444Z,61.88
2018-10-05T06:05:20.358Z,61.88
2018-10-05T06:06:20.283Z,61.88
2018-10-05T06:07:20.207Z,61.88
2018-10-05T06:08:20.122Z,61.88
2018-10-05T06:09:20.039Z,61.88
2018-10-05T06:10:19.945Z,67.50
2018-10-05T06:11:19.869Z,67.50
2018-10-05T06:12:19.784Z,73.13
2018-10-05T06:13:19.708Z,73.13
2018-10-05T06:14:19.623Z,78.75
2018-10-05T06:15:19.596Z,78.75
2018-10-05T06:16:19.485Z,78.75
2018-10-05T06:17:19.370Z,78.75
2018-10-05T06:18:19.297Z,78.75
2018-10-05T06:19:19.210Z,78.75
2018-10-05T06:20:19.135Z,78.75
2018-10-05T06:21:19.048Z,78.75
2018-10-05T06:22:19.115Z,78.75
2018-10-05T06:23:18.888Z,78.75
2018-10-05T06:24:18.798Z,78.75
2018-10-05T06:25:18.721Z,78.75
2018-10-05T06:26:18.638Z,78.75
2018-10-05T06:27:18.622Z,73.13
2018-10-05T06:28:18.472Z,73.13
2018-10-05T06:29:18.385Z,73.13
2018-10-05T06:30:18.310Z,67.50
2018-10-05T06:31:18.310Z,67.50
2018-10-05T06:32:18.147Z,67.50
2018-10-05T06:33:18.134Z,67.50
2018-10-05T06:34:17.973Z,67.50
2018-10-05T06:35:17.898Z,67.50
2018-10-05T06:36:17.811Z,67.50
2018-10-05T06:37:17.736Z,67.50
2018-10-05T06:38:17.717Z,73.13
2018-10-05T06:39:17.573Z,73.13
2018-10-05T06:40:17.486Z,73.13
2018-10-05T06:41:17.400Z,78.75
2018-10-05T06:42:17.403Z,78.75
2018-10-05T06:43:17.238Z,78.75
2018-10-05T06:44:17.162Z,78.75
2018-10-05T06:45:17.073Z,84.38
2018-10-05T06:46:17.021Z,84.38
2018-10-05T06:47:16.911Z,84.38
2018-10-05T06:48:16.826Z,84.38
2018-10-05T06:49:16.750Z,90.00
2018-10-05T06:50:16.664Z,90.00
2018-10-05T06:51:16.587Z,90.00
2018-10-05T06:52:16.507Z,95.63
2018-10-05T06:53:16.493Z,95.63
2018-10-05T06:54:16.338Z,101.25
2018-10-05T06:55:16.251Z,101.25
2018-10-05T06:56:16.175Z,106.88
2018-10-05T06:57:16.089Z,106.88
2018-10-05T06:58:16.013Z,112.50
2018-10-05T06:59:15.929Z,112.50
2018-10-05T07:00:15.853Z,118.13
2018-10-05T07:01:15.787Z,123.75
2018-10-05T07:02:15.678Z,123.75
2018-10-05T07:03:15.601Z,129.38
2018-10-05T07:04:15.513Z,140.63
2018-10-05T07:05:15.439Z,151.88
2018-10-05T07:06:15.350Z,140.63
2018-10-05T07:07:15.276Z,157.50
2018-10-05T07:08:15.189Z,196.88
2018-10-05T07:09:15.115Z,208.13
2018-10-05T07:10:15.026Z,213.75
2018-10-05T07:11:14.962Z,213.75
2018-10-05T07:12:14.865Z,225.00
2018-10-05T07:13:14.790Z,225.00
2018-10-05T07:14:14.702Z,230.63
2018-10-05T07:15:14.619Z,230.63
2018-10-05T07:16:14.540Z,236.25
2018-10-05T07:17:14.452Z,236.25
2018-10-05T07:18:14.390Z,236.25
2018-10-05T07:19:14.290Z,241.88
2018-10-05T07:20:14.215Z,247.50
2018-10-05T07:21:14.139Z,253.13
2018-10-05T07:22:14.074Z,253.13
2018-10-05T07:23:13.967Z,258.75
2018-10-05T07:24:13.891Z,258.75
2018-10-05T07:25:13.816Z,258.75
2018-10-05T07:26:13.728Z,247.50
2018-10-05T07:27:13.652Z,202.50
2018-10-05T07:28:13.630Z,174.38
2018-10-05T07:29:13.491Z,174.38
2018-10-05T07:30:13.416Z,174.38
2018-10-05T07:31:13.328Z,174.38
2018-10-05T07:32:13.253Z,174.38
2018-10-05T07:33:13.167Z,174.38
2018-10-05T07:34:13.092Z,180.00
2018-10-05T07:35:13.017Z,180.00
2018-10-05T07:36:12.929Z,180.00
2018-10-05T07:37:12.873Z,180.00
2018-10-05T07:38:12.772Z,180.00
2018-10-05T07:39:12.692Z,180.00
2018-10-05T07:40:12.617Z,185.63
2018-10-05T07:41:12.529Z,191.25
2018-10-05T07:42:12.457Z,196.88
2018-10-05T07:43:12.380Z,202.50
2018-10-05T07:44:12.293Z,208.13
2018-10-05T07:45:12.217Z,202.50
2018-10-05T07:46:12.130Z,213.75
2018-10-05T07:47:12.057Z,225.00
2018-10-05T07:48:11.969Z,230.63
2018-10-05T07:49:11.893Z,230.63
2018-10-05T07:50:11.819Z,236.25
2018-10-05T07:51:11.730Z,236.25
2018-10-05T07:52:11.659Z,241.88
2018-10-05T07:53:11.572Z,241.88
2018-10-05T07:54:11.494Z,241.88
2018-10-05T07:55:11.407Z,247.50
2018-10-05T07:56:11.330Z,241.88
2018-10-05T07:57:11.244Z,247.50
2018-10-05T07:58:11.172Z,247.50
2018-10-05T07:59:11.095Z,247.50
2018-10-05T08:00:11.008Z,253.13
2018-10-05T08:01:10.931Z,270.00
2018-10-05T08:02:10.846Z,270.00
2018-10-05T08:03:10.770Z,303.75
2018-10-05T08:04:10.696Z,365.63
2018-10-05T08:05:10.610Z,331.88
2018-10-05T08:06:10.531Z,320.63
2018-10-05T08:07:10.446Z,303.75
2018-10-05T08:08:10.371Z,286.88
2018-10-05T08:09:10.295Z,275.63
2018-10-05T08:10:10.207Z,337.50
2018-10-05T08:11:10.122Z,365.63
2018-10-05T08:12:10.046Z,382.50
2018-10-05T08:13:09.959Z,382.50
2018-10-05T08:14:09.896Z,382.50
2018-10-05T08:15:09.808Z,371.25
2018-10-05T08:16:09.723Z,348.75
2018-10-05T08:17:09.646Z,354.38
2018-10-05T08:18:09.571Z,348.75
2018-10-05T08:19:09.484Z,343.13
2018-10-05T08:20:09.409Z,348.75
2018-10-05T08:21:09.393Z,360.00
2018-10-05T08:22:09.247Z,354.38
2018-10-05T08:23:09.172Z,343.13
2018-10-05T08:24:09.097Z,326.25
2018-10-05T08:25:09.022Z,315.00
2018-10-05T08:26:08.935Z,315.00
2018-10-05T08:27:08.887Z,315.00
2018-10-05T08:28:08.785Z,315.00
2018-10-05T08:29:08.722Z,315.00
2018-10-05T08:30:08.634Z,315.00
2018-10-05T08:31:08.564Z,315.00
2018-10-05T08:32:08.475Z,309.38
2018-10-05T08:33:08.398Z,309.38
2018-10-05T08:34:08.378Z,309.38
2018-10-05T08:35:08.250Z,309.38
2018-10-05T08:36:08.174Z,309.38
2018-10-05T08:37:08.085Z,303.75
2018-10-05T08:38:08.011Z,303.75
2018-10-05T08:39:07.949Z,303.75
2018-10-05T08:40:07.885Z,303.75
2018-10-05T08:41:07.786Z,303.75
2018-10-05T08:42:07.702Z,303.75
2018-10-05T08:43:07.624Z,303.75
2018-10-05T08:44:07.554Z,303.75
2018-10-05T08:45:07.474Z,303.75
2018-10-05T08:46:07.404Z,298.13
2018-10-05T08:47:07.325Z,298.13
2018-10-05T08:48:07.238Z,298.13
2018-10-05T08:49:07.161Z,303.75
2018-10-05T08:50:07.089Z,298.13
2018-10-05T08:51:07.013Z,292.50
2018-10-05T08:52:07.024Z,275.63
2018-10-05T08:53:06.862Z,236.25
2018-10-05T08:54:06.787Z,213.75
2018-10-05T08:55:06.701Z,191.25
2018-10-05T08:56:06.626Z,185.63
2018-10-05T08:57:06.551Z,180.00
2018-10-05T08:58:06.476Z,174.38
2018-10-05T08:59:06.403Z,174.38
2018-10-05T09:00:06.361Z,174.38
2018-10-05T09:01:06.253Z,174.38
2018-10-05T09:02:06.163Z,174.38
2018-10-05T09:03:06.089Z,174.38
2018-10-05T09:04:06.014Z,180.00
2018-10-05T09:05:05.938Z,180.00
2018-10-05T09:06:05.864Z,180.00
2018-10-05T09:07:05.789Z,174.38
2018-10-05T09:08:05.714Z,168.75
2018-10-05T09:09:05.629Z,174.38
2018-10-05T09:10:05.553Z,174.38
2018-10-05T09:11:05.524Z,168.75
2018-10-05T09:12:05.403Z,168.75
2018-10-05T09:13:05.316Z,168.75
2018-10-05T09:14:05.241Z,168.75
2018-10-05T09:15:05.165Z,168.75
2018-10-05T09:16:05.091Z,168.75
2018-10-05T09:17:05.015Z,168.75
2018-10-05T09:18:04.954Z,168.75
2018-10-05T09:19:04.856Z,168.75
2018-10-05T09:20:04.777Z,168.75
2018-10-05T09:21:04.703Z,168.75
2018-10-05T09:22:04.616Z,174.38
2018-10-05T09:23:04.540Z,174.38
2018-10-05T09:24:04.478Z,174.38
2018-10-05T09:25:04.390Z,174.38
2018-10-05T09:26:04.303Z,174.38
2018-10-05T09:27:04.229Z,180.00
2018-10-05T09:28:04.153Z,180.00
2018-10-05T09:29:04.084Z,185.63
2018-10-05T09:30:04.004Z,185.63
2018-10-05T09:31:03.919Z,180.00
2018-10-05T09:32:03.855Z,185.63
2018-10-05T09:33:03.757Z,180.00
2018-10-05T09:34:03.688Z,180.00
2018-10-05T09:35:03.605Z,180.00
2018-10-05T09:36:03.531Z,185.63
2018-10-05T09:37:03.441Z,185.63
2018-10-05T09:38:03.367Z,185.63
2018-10-05T09:39:03.293Z,191.25
2018-10-05T09:40:03.207Z,185.63
2018-10-05T09:41:03.129Z,191.25
2018-10-05T09:42:03.060Z,191.25
2018-10-05T09:43:02.971Z,191.25
2018-10-05T09:44:02.893Z,191.25
2018-10-05T09:45:02.907Z,191.25
2018-10-05T09:46:02.731Z,196.88
2018-10-05T09:47:02.656Z,196.88
2018-10-05T09:48:02.584Z,196.88
2018-10-05T09:49:02.494Z,196.88
2018-10-05T09:50:02.421Z,196.88
2018-10-05T09:51:02.344Z,202.50
2018-10-05T09:52:02.270Z,202.50
2018-10-05T09:53:02.181Z,202.50
2018-10-05T09:54:02.107Z,208.13
2018-10-05T09:55:02.033Z,208.13
2018-10-05T09:56:01.944Z,208.13
2018-10-05T09:57:01.881Z,213.75
2018-10-05T09:58:01.794Z,213.75
2018-10-05T09:59:01.720Z,213.75
2018-10-05T10:00:01.747Z,213.75
2018-10-05T10:01:01.557Z,213.75
2018-10-05T10:02:01.483Z,213.75
2018-10-05T10:03:01.417Z,213.75
2018-10-05T10:04:01.320Z,213.75
2018-10-05T10:05:01.246Z,213.75
2018-10-05T10:06:01.158Z,213.75
2018-10-05T10:07:01.083Z,219.38
2018-10-05T10:08:01.052Z,219.38
2018-10-05T10:09:00.922Z,219.38
2018-10-05T10:10:00.845Z,219.38
2018-10-05T10:11:00.771Z,219.38
2018-10-05T10:12:00.695Z,225.00
2018-10-05T10:13:00.612Z,225.00
2018-10-05T10:14:00.561Z,225.00
2018-10-05T10:15:00.459Z,241.88
2018-10-05T10:16:00.384Z,264.38
2018-10-05T10:17:00.296Z,298.13
2018-10-05T10:18:00.221Z,315.00
2018-10-05T10:19:00.146Z,331.88
2018-10-05T10:20:00.059Z,315.00
2018-10-05T10:20:59.990Z,331.88
2018-10-05T10:21:59.910Z,348.75
2018-10-05T10:22:59.835Z,286.88
2018-10-05T10:23:59.747Z,253.13
2018-10-05T10:24:59.673Z,241.88
2018-10-05T10:25:59.597Z,241.88
2018-10-05T10:26:59.525Z,247.50
2018-10-05T10:27:59.449Z,253.13
2018-10-05T10:28:59.417Z,270.00
2018-10-05T10:29:59.285Z,275.63
2018-10-05T10:30:59.212Z,253.13
2018-10-05T10:31:59.123Z,258.75
2018-10-05T10:32:59.047Z,264.38
2018-10-05T10:33:58.972Z,281.25
2018-10-05T10:34:58.897Z,315.00
2018-10-05T10:35:58.836Z,348.75
2018-10-05T10:36:58.739Z,371.25
2018-10-05T10:37:58.664Z,590.63
2018-10-05T10:38:58.587Z,742.50
2018-10-05T10:39:58.516Z,725.63
2018-10-05T10:40:58.437Z,691.88
2018-10-05T10:41:58.350Z,675.00
2018-10-05T10:42:58.275Z,545.63
2018-10-05T10:43:58.199Z,416.25
2018-10-05T10:44:58.138Z,275.63
2018-10-05T10:45:58.050Z,270.00
2018-10-05T10:46:57.975Z,275.63
2018-10-05T10:47:57.942Z,326.25
2018-10-05T10:48:57.815Z,286.88
2018-10-05T10:49:57.739Z,309.38
2018-10-05T10:50:57.666Z,365.63
2018-10-05T10:51:57.589Z,438.75
2018-10-05T10:52:57.586Z,551.25
2018-10-05T10:53:57.496Z,343.13
2018-10-05T10:54:57.426Z,309.38
2018-10-05T10:55:57.276Z,326.25
2018-10-05T10:56:57.201Z,365.63
2018-10-05T10:57:57.127Z,348.75
2018-10-05T10:58:57.051Z,376.88
2018-10-05T10:59:56.978Z,461.25
2018-10-05T11:00:56.901Z,517.50
2018-10-05T11:01:56.827Z,511.88
2018-10-05T11:02:56.817Z,500.63
2018-10-05T11:03:56.683Z,315.00
2018-10-05T11:04:56.636Z,365.63
2018-10-05T11:05:56.515Z,579.38
2018-10-05T11:06:56.441Z,720.00
2018-10-05T11:07:56.365Z,556.88
2018-10-05T11:08:56.290Z,635.63
2018-10-05T11:09:56.216Z,787.50
2018-10-05T11:10:56.257Z,911.25
2018-10-05T11:11:56.066Z,939.38
2018-10-05T11:12:55.995Z,916.88
2018-10-05T11:13:55.921Z,956.25
2018-10-05T11:14:55.841Z,967.50
2018-10-05T11:15:55.767Z,978.75
2018-10-05T11:16:55.721Z,978.75
2018-10-05T11:17:55.617Z,990.00
2018-10-05T11:18:55.547Z,978.75
2018-10-05T11:19:55.479Z,978.75
2018-10-05T11:20:55.417Z,978.75
2018-10-05T11:21:55.328Z,967.50
2018-10-05T11:22:55.254Z,967.50
2018-10-05T11:23:55.478Z,973.13
2018-10-05T11:24:55.117Z,973.13
2018-10-05T11:25:55.029Z,978.75
2018-10-05T11:26:54.955Z,978.75
2018-10-05T11:27:54.893Z,961.88
2018-10-05T11:28:54.818Z,961.88
2018-10-05T11:29:54.747Z,973.13
2018-10-05T11:30:54.668Z,961.88
2018-10-05T11:31:54.593Z,967.50
2018-10-05T11:32:54.519Z,973.13
2018-10-05T11:33:54.443Z,984.38
2018-10-05T11:34:54.426Z,1023.75
2018-10-05T11:35:54.305Z,1383.75
2018-10-05T11:36:54.230Z,2019.38
2018-10-05T11:37:54.156Z,1980.00
2018-10-05T11:38:54.080Z,1850.63
2018-10-05T11:39:54.019Z,1839.38
2018-10-05T11:40:53.981Z,1867.50
2018-10-05T11:41:53.869Z,1878.75
2018-10-05T11:42:53.794Z,1867.50
2018-10-05T11:43:53.719Z,1890.00
2018-10-05T11:44:53.656Z,1906.88
2018-10-05T11:45:53.581Z,1861.88
2018-10-05T11:46:53.506Z,1850.63
2018-10-05T11:47:53.444Z,1833.75
2018-10-05T11:48:53.357Z,1856.25
2018-10-05T11:49:53.295Z,1822.50
2018-10-05T11:50:53.221Z,1816.88
2018-10-05T11:51:53.147Z,1816.88
2018-10-05T11:52:53.070Z,1828.13
2018-10-05T11:53:53.007Z,1816.88
2018-10-05T11:54:52.945Z,1811.25
2018-10-05T11:55:52.857Z,1822.50
2018-10-05T11:56:52.815Z,1828.13
2018-10-05T11:57:52.721Z,1805.63
2018-10-05T11:58:52.647Z,1811.25
2018-10-05T11:59:52.582Z,1816.88
2018-10-05T12:00:52.507Z,1788.75
2018-10-05T12:01:52.433Z,1777.50
2018-10-05T12:02:52.358Z,1760.63
2018-10-05T12:03:52.284Z,1743.75
2018-10-05T12:04:52.223Z,1726.88
2018-10-05T12:05:52.146Z,1721.25
2018-10-05T12:06:52.072Z,1726.88
2018-10-05T12:07:52.009Z,1704.38
2018-10-05T12:08:51.938Z,1698.75
2018-10-05T12:09:51.859Z,1670.63
2018-10-05T12:10:51.784Z,1614.38
2018-10-05T12:11:51.723Z,1558.13
2018-10-05T12:12:51.647Z,1485.00
2018-10-05T12:13:51.632Z,1423.13
2018-10-05T12:14:51.501Z,1338.75
2018-10-05T12:15:51.434Z,1282.50
2018-10-05T12:16:51.362Z,1198.13
2018-10-05T12:17:51.284Z,1170.00
2018-10-05T12:18:51.223Z,1147.50
2018-10-05T12:19:51.206Z,1125.00
2018-10-05T12:20:51.074Z,1108.13
2018-10-05T12:21:50.999Z,1102.50
2018-10-05T12:22:50.935Z,1108.13
2018-10-05T12:23:50.862Z,1125.00
2018-10-05T12:24:50.786Z,1125.00
2018-10-05T12:25:50.726Z,1125.00
2018-10-05T12:26:50.649Z,1136.25
2018-10-05T12:27:50.575Z,1130.63
2018-10-05T12:28:50.511Z,1130.63
2018-10-05T12:29:50.476Z,1136.25
2018-10-05T12:30:50.374Z,1141.88
2018-10-05T12:31:50.299Z,1147.50
2018-10-05T12:32:50.226Z,1153.13
2018-10-05T12:33:50.150Z,1164.38
2018-10-05T12:34:50.086Z,1164.38
2018-10-05T12:35:50.013Z,1170.00
2018-10-05T12:36:49.937Z,1164.38
2018-10-05T12:37:49.863Z,1181.25
2018-10-05T12:38:49.801Z,1175.63
2018-10-05T12:39:49.726Z,1186.88
2018-10-05T12:40:49.651Z,1198.13
2018-10-05T12:41:49.591Z,1203.75
2018-10-05T12:42:49.526Z,1203.75
2018-10-05T12:43:49.438Z,1209.38
2018-10-05T12:44:49.376Z,1215.00
2018-10-05T12:45:49.301Z,1220.63
2018-10-05T12:46:49.229Z,1220.63
2018-10-05T12:47:49.162Z,1226.25
2018-10-05T12:48:49.088Z,1231.88